sensor_id;sensor_type;location;lat;lon;timestamp;pressure;altitude;pressure_sealevel;temperature
26158;BMP280;67284;44.782;10.282;2023-07-20T00:02:43;100227.47;;;29.03
26158;BMP280;67284;44.782;10.282;2023-07-20T00:07:36;100229.84;;;29.06
26158;BMP280;67284;44.782;10.282;2023-07-20T00:12:27;100209.66;;;29.05
26158;BMP280;67284;44.782;10.282;2023-07-20T00:17:19;100219.97;;;28.98
26158;BMP280;67284;44.782;10.282;2023-07-20T00:22:12;100222.19;;;28.93
26158;BMP280;67284;44.782;10.282;2023-07-20T00:27:05;100219.56;;;28.84
26158;BMP280;67284;44.782;10.282;2023-07-20T00:31:58;100243.25;;;28.76
26158;BMP280;67284;44.782;10.282;2023-07-20T00:36:50;100248.53;;;28.76
26158;BMP280;67284;44.782;10.282;2023-07-20T00:41:42;100283.25;;;28.73
26158;BMP280;67284;44.782;10.282;2023-07-20T00:46:34;100293.50;;;28.57
26158;BMP280;67284;44.782;10.282;2023-07-20T00:51:26;100301.69;;;28.45
26158;BMP280;67284;44.782;10.282;2023-07-20T00:56:18;100305.84;;;28.29
26158;BMP280;67284;44.782;10.282;2023-07-20T01:01:11;100285.31;;;28.12
26158;BMP280;67284;44.782;10.282;2023-07-20T01:16:23;100275.50;;;27.93
26158;BMP280;67284;44.782;10.282;2023-07-20T01:21:24;100262.13;;;27.95
26158;BMP280;67284;44.782;10.282;2023-07-20T01:26:27;100246.00;;;27.98
26158;BMP280;67284;44.782;10.282;2023-07-20T01:31:27;100258.81;;;28.02
26158;BMP280;67284;44.782;10.282;2023-07-20T01:36:21;100277.91;;;28.06
26158;BMP280;67284;44.782;10.282;2023-07-20T01:41:15;100277.50;;;28.10
26158;BMP280;67284;44.782;10.282;2023-07-20T01:46:07;100287.25;;;28.10
26158;BMP280;67284;44.782;10.282;2023-07-20T01:50:58;100303.13;;;28.10
26158;BMP280;67284;44.782;10.282;2023-07-20T01:55:53;100292.78;;;28.07
26158;BMP280;67284;44.782;10.282;2023-07-20T02:00:46;100309.78;;;28.04
26158;BMP280;67284;44.782;10.282;2023-07-20T02:05:38;100311.13;;;27.99
26158;BMP280;67284;44.782;10.282;2023-07-20T02:10:30;100310.00;;;27.92
26158;BMP280;67284;44.782;10.282;2023-07-20T02:15:23;100314.00;;;27.86
26158;BMP280;67284;44.782;10.282;2023-07-20T02:20:15;100314.97;;;27.85
26158;BMP280;67284;44.782;10.282;2023-07-20T02:25:08;100308.84;;;27.85
26158;BMP280;67284;44.782;10.282;2023-07-20T02:30:00;100312.13;;;27.78
26158;BMP280;67284;44.782;10.282;2023-07-20T02:34:52;100307.69;;;27.78
26158;BMP280;67284;44.782;10.282;2023-07-20T02:39:44;100321.06;;;27.77
26158;BMP280;67284;44.782;10.282;2023-07-20T02:44:36;100305.47;;;27.74
26158;BMP280;67284;44.782;10.282;2023-07-20T02:49:28;100312.66;;;27.72
26158;BMP280;67284;44.782;10.282;2023-07-20T02:54:20;100310.41;;;27.67
26158;BMP280;67284;44.782;10.282;2023-07-20T02:59:12;100307.09;;;27.65
26158;BMP280;67284;44.782;10.282;2023-07-20T03:04:04;100312.63;;;27.62
26158;BMP280;67284;44.782;10.282;2023-07-20T03:08:56;100318.16;;;27.59
26158;BMP280;67284;44.782;10.282;2023-07-20T03:13:49;100315.81;;;27.45
26158;BMP280;67284;44.782;10.282;2023-07-20T03:18:41;100310.16;;;27.29
26158;BMP280;67284;44.782;10.282;2023-07-20T03:23:34;100290.06;;;27.18
26158;BMP280;67284;44.782;10.282;2023-07-20T03:28:26;100290.25;;;27.05
26158;BMP280;67284;44.782;10.282;2023-07-20T03:33:18;100300.47;;;26.99
26158;BMP280;67284;44.782;10.282;2023-07-20T03:38:10;100284.63;;;26.99
26158;BMP280;67284;44.782;10.282;2023-07-20T03:43:02;100288.84;;;27.01
26158;BMP280;67284;44.782;10.282;2023-07-20T03:47:54;100282.72;;;27.01
26158;BMP280;67284;44.782;10.282;2023-07-20T03:52:47;100293.50;;;26.98
26158;BMP280;67284;44.782;10.282;2023-07-20T03:57:39;100293.97;;;27.03
26158;BMP280;67284;44.782;10.282;2023-07-20T04:02:31;100312.22;;;27.06
26158;BMP280;67284;44.782;10.282;2023-07-20T04:07:24;100317.34;;;27.07
26158;BMP280;67284;44.782;10.282;2023-07-20T04:12:16;100302.59;;;27.05
26158;BMP280;67284;44.782;10.282;2023-07-20T04:17:08;100306.09;;;27.05
26158;BMP280;67284;44.782;10.282;2023-07-20T04:22:00;100308.75;;;27.05
26158;BMP280;67284;44.782;10.282;2023-07-20T04:26:54;100311.50;;;27.04
26158;BMP280;67284;44.782;10.282;2023-07-20T04:31:46;100307.19;;;27.03
26158;BMP280;67284;44.782;10.282;2023-07-20T04:36:37;100308.00;;;27.03
26158;BMP280;67284;44.782;10.282;2023-07-20T04:41:30;100298.56;;;27.01
26158;BMP280;67284;44.782;10.282;2023-07-20T04:46:25;100300.47;;;26.99
26158;BMP280;67284;44.782;10.282;2023-07-20T04:51:18;100293.38;;;26.99
26158;BMP280;67284;44.782;10.282;2023-07-20T04:56:14;100304.06;;;26.98
26158;BMP280;67284;44.782;10.282;2023-07-20T05:01:08;100284.63;;;26.99
26158;BMP280;67284;44.782;10.282;2023-07-20T05:06:00;100309.34;;;26.98
26158;BMP280;67284;44.782;10.282;2023-07-20T05:10:52;100296.03;;;26.99
26158;BMP280;67284;44.782;10.282;2023-07-20T05:15:45;100304.41;;;27.04
26158;BMP280;67284;44.782;10.282;2023-07-20T05:20:40;100304.28;;;27.06
26158;BMP280;67284;44.782;10.282;2023-07-20T05:25:33;100308.75;;;27.05
26158;BMP280;67284;44.782;10.282;2023-07-20T05:30:24;100305.50;;;27.02
26158;BMP280;67284;44.782;10.282;2023-07-20T05:35:17;100311.88;;;26.99
26158;BMP280;67284;44.782;10.282;2023-07-20T05:40:10;100313.81;;;26.97
26158;BMP280;67284;44.782;10.282;2023-07-20T05:45:04;100319.69;;;27.01
26158;BMP280;67284;44.782;10.282;2023-07-20T05:49:56;100317.03;;;27.01
26158;BMP280;67284;44.782;10.282;2023-07-20T05:54:48;100317.03;;;27.01
26158;BMP280;67284;44.782;10.282;2023-07-20T05:59:40;100331.19;;;27.00
26158;BMP280;67284;44.782;10.282;2023-07-20T06:04:35;100340.06;;;26.99
26158;BMP280;67284;44.782;10.282;2023-07-20T06:09:27;100329.50;;;26.99
26158;BMP280;67284;44.782;10.282;2023-07-20T06:14:19;100338.38;;;26.98
26158;BMP280;67284;44.782;10.282;2023-07-20T06:19:11;100342.47;;;27.02
26158;BMP280;67284;44.782;10.282;2023-07-20T06:24:03;100347.03;;;27.00
26158;BMP280;67284;44.782;10.282;2023-07-20T06:28:56;100340.81;;;27.01
26158;BMP280;67284;44.782;10.282;2023-07-20T06:33:48;100350.38;;;27.02
26158;BMP280;67284;44.782;10.282;2023-07-20T06:38:40;100353.03;;;27.02
26158;BMP280;67284;44.782;10.282;2023-07-20T06:43:32;100359.97;;;27.03
26158;BMP280;67284;44.782;10.282;2023-07-20T06:48:26;100364.19;;;27.05
26158;BMP280;67284;44.782;10.282;2023-07-20T06:53:18;100362.25;;;27.07
26158;BMP280;67284;44.782;10.282;2023-07-20T06:58:11;100366.56;;;27.08
26158;BMP280;67284;44.782;10.282;2023-07-20T07:03:03;100363.78;;;27.10
26158;BMP280;67284;44.782;10.282;2023-07-20T07:07:55;100371.03;;;27.08
26158;BMP280;67284;44.782;10.282;2023-07-20T07:12:46;100359.56;;;27.38
26158;BMP280;67284;44.782;10.282;2023-07-20T07:17:38;100368.16;;;27.72
26158;BMP280;67284;44.782;10.282;2023-07-20T07:22:31;100366.22;;;27.94
26158;BMP280;67284;44.782;10.282;2023-07-20T07:27:23;100367.53;;;28.09
26158;BMP280;67284;44.782;10.282;2023-07-20T07:32:15;100360.69;;;28.27
26158;BMP280;67284;44.782;10.282;2023-07-20T07:37:07;100357.09;;;28.76
26158;BMP280;67284;44.782;10.282;2023-07-20T07:41:59;100365.06;;;29.14
26158;BMP280;67284;44.782;10.282;2023-07-20T07:46:51;100359.91;;;29.41
26158;BMP280;67284;44.782;10.282;2023-07-20T07:51:43;100350.66;;;29.73
26158;BMP280;67284;44.782;10.282;2023-07-20T07:56:35;100348.66;;;29.94
26158;BMP280;67284;44.782;10.282;2023-07-20T08:01:27;100352.75;;;30.15
26158;BMP280;67284;44.782;10.282;2023-07-20T08:06:19;100365.25;;;30.41
26158;BMP280;67284;44.782;10.282;2023-07-20T08:11:11;100353.06;;;30.48
26158;BMP280;67284;44.782;10.282;2023-07-20T08:16:05;100364.84;;;30.63
26158;BMP280;67284;44.782;10.282;2023-07-20T08:20:57;100367.22;;;30.83
26158;BMP280;67284;44.782;10.282;2023-07-20T08:25:49;100367.97;;;30.76
26158;BMP280;67284;44.782;10.282;2023-07-20T08:30:46;100359.47;;;30.72
26158;BMP280;67284;44.782;10.282;2023-07-20T08:35:38;100352.00;;;30.58
26158;BMP280;67284;44.782;10.282;2023-07-20T08:40:34;100355.34;;;30.60
26158;BMP280;67284;44.782;10.282;2023-07-20T08:45:33;100349.22;;;30.60
26158;BMP280;67284;44.782;10.282;2023-07-20T08:50:30;100340.41;;;30.59
26158;BMP280;67284;44.782;10.282;2023-07-20T08:55:23;100337.03;;;30.67
26158;BMP280;67284;44.782;10.282;2023-07-20T09:00:16;100336.25;;;30.74
26158;BMP280;67284;44.782;10.282;2023-07-20T09:05:09;100344.44;;;30.81
26158;BMP280;67284;44.782;10.282;2023-07-20T09:10:02;100341.22;;;30.87
26158;BMP280;67284;44.782;10.282;2023-07-20T09:14:57;100341.66;;;30.82
26158;BMP280;67284;44.782;10.282;2023-07-20T09:19:49;100337.63;;;30.78
26158;BMP280;67284;44.782;10.282;2023-07-20T09:24:41;100331.81;;;30.65
26158;BMP280;67284;44.782;10.282;2023-07-20T09:29:47;100339.53;;;30.68
26158;BMP280;67284;44.782;10.282;2023-07-20T09:34:39;100327.31;;;30.75
26158;BMP280;67284;44.782;10.282;2023-07-20T09:39:31;100334.69;;;30.81
26158;BMP280;67284;44.782;10.282;2023-07-20T09:44:23;100327.78;;;30.88
26158;BMP280;67284;44.782;10.282;2023-07-20T09:49:18;100332.50;;;30.94
26158;BMP280;67284;44.782;10.282;2023-07-20T09:54:13;100314.66;;;31.04
26158;BMP280;67284;44.782;10.282;2023-07-20T09:59:05;100305.09;;;31.11
26158;BMP280;67284;44.782;10.282;2023-07-20T10:03:58;100304.84;;;31.22
26158;BMP280;67284;44.782;10.282;2023-07-20T10:08:55;100317.06;;;31.50
26158;BMP280;67284;44.782;10.282;2023-07-20T10:13:51;100298.53;;;31.65
26158;BMP280;67284;44.782;10.282;2023-07-20T10:24:02;100291.75;;;31.96
26158;BMP280;67284;44.782;10.282;2023-07-20T10:28:55;100291.97;;;32.11
26158;BMP280;67284;44.782;10.282;2023-07-20T10:33:48;100292.53;;;32.22
26158;BMP280;67284;44.782;10.282;2023-07-20T10:38:52;100286.50;;;32.53
26158;BMP280;67284;44.782;10.282;2023-07-20T10:43:45;100287.59;;;32.43
26158;BMP280;67284;44.782;10.282;2023-07-20T10:49:01;100280.06;;;32.22
26158;BMP280;67284;44.782;10.282;2023-07-20T10:53:57;100278.22;;;32.64
26158;BMP280;67284;44.782;10.282;2023-07-20T10:58:55;100274.38;;;32.74
26158;BMP280;67284;44.782;10.282;2023-07-20T11:03:49;100279.25;;;32.95
26158;BMP280;67284;44.782;10.282;2023-07-20T11:08:44;100268.59;;;33.03
26158;BMP280;67284;44.782;10.282;2023-07-20T11:13:53;100258.75;;;33.35
26158;BMP280;67284;44.782;10.282;2023-07-20T11:18:46;100249.78;;;33.12
26158;BMP280;67284;44.782;10.282;2023-07-20T11:23:38;100251.75;;;33.18
26158;BMP280;67284;44.782;10.282;2023-07-20T11:28:30;100243.44;;;33.21
26158;BMP280;67284;44.782;10.282;2023-07-20T11:33:23;100228.59;;;33.26
26158;BMP280;67284;44.782;10.282;2023-07-20T11:38:15;100226.25;;;33.47
26158;BMP280;67284;44.782;10.282;2023-07-20T11:43:07;100228.47;;;33.82
26158;BMP280;67284;44.782;10.282;2023-07-20T11:48:02;100218.50;;;34.14
26158;BMP280;67284;44.782;10.282;2023-07-20T11:52:54;100215.13;;;34.20
26158;BMP280;67284;44.782;10.282;2023-07-20T11:58:05;100207.13;;;34.42
26158;BMP280;67284;44.782;10.282;2023-07-20T12:02:57;100206.84;;;34.37
26158;BMP280;67284;44.782;10.282;2023-07-20T12:07:50;100185.59;;;34.22
26158;BMP280;67284;44.782;10.282;2023-07-20T12:12:45;100191.50;;;34.09
26158;BMP280;67284;44.782;10.282;2023-07-20T12:17:41;100184.91;;;33.97
26158;BMP280;67284;44.782;10.282;2023-07-20T12:22:38;100176.44;;;34.16
26158;BMP280;67284;44.782;10.282;2023-07-20T12:27:30;100171.72;;;34.26
26158;BMP280;67284;44.782;10.282;2023-07-20T12:32:22;100168.50;;;34.08
26158;BMP280;67284;44.782;10.282;2023-07-20T12:37:13;100160.53;;;34.00
26158;BMP280;67284;44.782;10.282;2023-07-20T12:42:09;100160.53;;;34.00
26158;BMP280;67284;44.782;10.282;2023-07-20T12:47:01;100159.88;;;33.98
26158;BMP280;67284;44.782;10.282;2023-07-20T12:51:53;100145.97;;;33.72
26158;BMP280;67284;44.782;10.282;2023-07-20T12:56:45;100145.19;;;33.94
26158;BMP280;67284;44.782;10.282;2023-07-20T13:01:40;100145.06;;;33.88
26158;BMP280;67284;44.782;10.282;2023-07-20T13:06:35;100135.88;;;33.98
26158;BMP280;67284;44.782;10.282;2023-07-20T13:11:27;100143.41;;;33.87
26158;BMP280;67284;44.782;10.282;2023-07-20T13:16:19;100134.91;;;33.83
26158;BMP280;67284;44.782;10.282;2023-07-20T13:21:11;100121.63;;;34.06
26158;BMP280;67284;44.782;10.282;2023-07-20T13:26:07;100121.53;;;34.44
26158;BMP280;67284;44.782;10.282;2023-07-20T13:30:59;100119.81;;;34.51
26158;BMP280;67284;44.782;10.282;2023-07-20T13:35:51;100106.53;;;34.80
26158;BMP280;67284;44.782;10.282;2023-07-20T13:40:43;100099.31;;;34.66
26158;BMP280;67284;44.782;10.282;2023-07-20T13:45:35;100094.25;;;34.71
26158;BMP280;67284;44.782;10.282;2023-07-20T13:50:30;100095.47;;;34.82
26158;BMP280;67284;44.782;10.282;2023-07-20T13:55:33;100090.94;;;34.69
26158;BMP280;67284;44.782;10.282;2023-07-20T14:00:31;100082.72;;;34.56
26158;BMP280;67284;44.782;10.282;2023-07-20T14:05:25;100084.72;;;34.54
26158;BMP280;67284;44.782;10.282;2023-07-20T14:10:20;100073.91;;;34.70
26158;BMP280;67284;44.782;10.282;2023-07-20T14:15:12;100078.44;;;34.83
26158;BMP280;67284;44.782;10.282;2023-07-20T14:20:05;100068.97;;;34.95
26158;BMP280;67284;44.782;10.282;2023-07-20T14:25:12;100056.53;;;35.02
26158;BMP280;67284;44.782;10.282;2023-07-20T14:30:05;100065.66;;;35.08
26158;BMP280;67284;44.782;10.282;2023-07-20T14:34:57;100063.63;;;34.95
26158;BMP280;67284;44.782;10.282;2023-07-20T14:39:49;100059.47;;;34.93
26158;BMP280;67284;44.782;10.282;2023-07-20T14:44:41;100056.91;;;34.99
26158;BMP280;67284;44.782;10.282;2023-07-20T14:49:32;100045.91;;;34.94
26158;BMP280;67284;44.782;10.282;2023-07-20T14:54:24;100033.28;;;34.74
26158;BMP280;67284;44.782;10.282;2023-07-20T14:59:16;100034.63;;;34.56
26158;BMP280;67284;44.782;10.282;2023-07-20T15:04:09;100041.19;;;34.68
26158;BMP280;67284;44.782;10.282;2023-07-20T15:09:01;100034.78;;;34.91
26158;BMP280;67284;44.782;10.282;2023-07-20T15:13:53;100033.41;;;34.95
26158;BMP280;67284;44.782;10.282;2023-07-20T15:18:45;100031.09;;;34.92
26158;BMP280;67284;44.782;10.282;2023-07-20T15:23:39;100025.44;;;34.73
26158;BMP280;67284;44.782;10.282;2023-07-20T15:28:30;100026.63;;;34.70
26158;BMP280;67284;44.782;10.282;2023-07-20T15:33:22;100018.53;;;34.78
26158;BMP280;67284;44.782;10.282;2023-07-20T15:38:17;100011.81;;;35.11
26158;BMP280;67284;44.782;10.282;2023-07-20T15:43:09;99999.16;;;35.19
26158;BMP280;67284;44.782;10.282;2023-07-20T15:48:04;100007.34;;;35.32
26158;BMP280;67284;44.782;10.282;2023-07-20T15:52:56;99995.84;;;35.32
26158;BMP280;67284;44.782;10.282;2023-07-20T15:57:48;99992.88;;;35.27
26158;BMP280;67284;44.782;10.282;2023-07-20T16:02:40;99978.22;;;35.37
26158;BMP280;67284;44.782;10.282;2023-07-20T16:07:33;99978.56;;;35.48
26158;BMP280;67284;44.782;10.282;2023-07-20T16:12:24;99977.28;;;35.44
26158;BMP280;67284;44.782;10.282;2023-07-20T16:17:19;99971.94;;;34.95
26158;BMP280;67284;44.782;10.282;2023-07-20T16:22:11;99965.38;;;34.54
26158;BMP280;67284;44.782;10.282;2023-07-20T16:27:05;99962.75;;;34.32
26158;BMP280;67284;44.782;10.282;2023-07-20T16:31:57;99950.03;;;34.20
26158;BMP280;67284;44.782;10.282;2023-07-20T16:36:51;99960.41;;;34.15
26158;BMP280;67284;44.782;10.282;2023-07-20T16:41:46;99967.06;;;33.96
26158;BMP280;67284;44.782;10.282;2023-07-20T16:46:41;99958.81;;;33.83
26158;BMP280;67284;44.782;10.282;2023-07-20T16:51:36;99959.91;;;33.74
26158;BMP280;67284;44.782;10.282;2023-07-20T16:56:28;99960.28;;;33.72
26158;BMP280;67284;44.782;10.282;2023-07-20T17:01:20;99959.97;;;33.67
26158;BMP280;67284;44.782;10.282;2023-07-20T17:06:13;99953.25;;;33.71
26158;BMP280;67284;44.782;10.282;2023-07-20T17:11:05;99957.59;;;33.72
26158;BMP280;67284;44.782;10.282;2023-07-20T17:15:57;99947.38;;;33.75
26158;BMP280;67284;44.782;10.282;2023-07-20T17:20:48;99959.06;;;33.74
26158;BMP280;67284;44.782;10.282;2023-07-20T17:25:47;99953.53;;;33.75
26158;BMP280;67284;44.782;10.282;2023-07-20T17:30:42;99943.31;;;33.65
26158;BMP280;67284;44.782;10.282;2023-07-20T17:35:35;99944.13;;;33.35
26158;BMP280;67284;44.782;10.282;2023-07-20T17:40:27;99946.94;;;33.11
26158;BMP280;67284;44.782;10.282;2023-07-20T17:45:22;99940.88;;;32.95
26158;BMP280;67284;44.782;10.282;2023-07-20T17:50:15;99939.91;;;32.88
26158;BMP280;67284;44.782;10.282;2023-07-20T17:55:08;99940.91;;;32.79
26158;BMP280;67284;44.782;10.282;2023-07-20T18:00:00;99944.78;;;32.68
26158;BMP280;67284;44.782;10.282;2023-07-20T18:04:55;99952.97;;;32.59
26158;BMP280;67284;44.782;10.282;2023-07-20T18:09:47;99947.34;;;32.54
26158;BMP280;67284;44.782;10.282;2023-07-20T18:14:39;99953.50;;;32.47
26158;BMP280;67284;44.782;10.282;2023-07-20T18:19:31;99954.81;;;32.43
26158;BMP280;67284;44.782;10.282;2023-07-20T18:24:23;99955.50;;;32.37
26158;BMP280;67284;44.782;10.282;2023-07-20T18:29:15;99954.22;;;32.17
26158;BMP280;67284;44.782;10.282;2023-07-20T18:34:06;99951.88;;;31.98
26158;BMP280;67284;44.782;10.282;2023-07-20T18:38:58;99949.56;;;31.87
26158;BMP280;67284;44.782;10.282;2023-07-20T18:43:52;99960.19;;;31.87
26158;BMP280;67284;44.782;10.282;2023-07-20T18:48:46;99952.03;;;31.89
26158;BMP280;67284;44.782;10.282;2023-07-20T18:53:39;99962.19;;;31.93
26158;BMP280;67284;44.782;10.282;2023-07-20T18:58:30;99965.53;;;31.95
26158;BMP280;67284;44.782;10.282;2023-07-20T19:03:22;99963.38;;;31.99
26158;BMP280;67284;44.782;10.282;2023-07-20T19:08:16;99970.50;;;31.98
26158;BMP280;67284;44.782;10.282;2023-07-20T19:13:07;99980.09;;;31.67
26158;BMP280;67284;44.782;10.282;2023-07-20T19:17:59;99987.69;;;31.39
26158;BMP280;67284;44.782;10.282;2023-07-20T19:22:51;99986.63;;;31.16
26158;BMP280;67284;44.782;10.282;2023-07-20T19:27:43;100000.97;;;30.98
26158;BMP280;67284;44.782;10.282;2023-07-20T19:32:35;99999.75;;;30.84
26158;BMP280;67284;44.782;10.282;2023-07-20T19:37:28;99993.03;;;30.72
26158;BMP280;67284;44.782;10.282;2023-07-20T19:42:21;99993.97;;;30.63
26158;BMP280;67284;44.782;10.282;2023-07-20T19:47:13;99995.75;;;30.55
26158;BMP280;67284;44.782;10.282;2023-07-20T19:52:05;100002.69;;;30.48
26158;BMP280;67284;44.782;10.282;2023-07-20T19:56:57;100017.72;;;30.40
26158;BMP280;67284;44.782;10.282;2023-07-20T20:01:49;100033.22;;;30.35
26158;BMP280;67284;44.782;10.282;2023-07-20T20:06:41;100047.28;;;30.27
26158;BMP280;67284;44.782;10.282;2023-07-20T20:11:34;100046.06;;;30.22
26158;BMP280;67284;44.782;10.282;2023-07-20T20:16:26;100055.31;;;30.18
26158;BMP280;67284;44.782;10.282;2023-07-20T20:21:18;100053.28;;;30.12
26158;BMP280;67284;44.782;10.282;2023-07-20T20:26:13;100042.47;;;30.05
26158;BMP280;67284;44.782;10.282;2023-07-20T20:31:05;100049.06;;;30.01
26158;BMP280;67284;44.782;10.282;2023-07-20T20:35:59;100050.50;;;29.96
26158;BMP280;67284;44.782;10.282;2023-07-20T20:40:52;100054.44;;;29.92
26158;BMP280;67284;44.782;10.282;2023-07-20T20:45:44;100056.03;;;29.85
26158;BMP280;67284;44.782;10.282;2023-07-20T20:50:37;100063.31;;;29.83
26158;BMP280;67284;44.782;10.282;2023-07-20T20:55:35;100070.84;;;29.78
26158;BMP280;67284;44.782;10.282;2023-07-20T21:00:28;100081.75;;;29.75
26158;BMP280;67284;44.782;10.282;2023-07-20T21:05:22;100090.97;;;29.71
26158;BMP280;67284;44.782;10.282;2023-07-20T21:10:16;100092.94;;;29.69
26158;BMP280;67284;44.782;10.282;2023-07-20T21:15:08;100093.53;;;29.63
26158;BMP280;67284;44.782;10.282;2023-07-20T21:20:00;100078.94;;;29.59
26158;BMP280;67284;44.782;10.282;2023-07-20T21:24:52;100065.94;;;29.56
26158;BMP280;67284;44.782;10.282;2023-07-20T21:29:44;100055.50;;;29.55
26158;BMP280;67284;44.782;10.282;2023-07-20T21:34:38;100050.50;;;29.52
26158;BMP280;67284;44.782;10.282;2023-07-20T21:39:30;100052.63;;;29.48
26158;BMP280;67284;44.782;10.282;2023-07-20T21:44:22;100067.00;;;29.46
26158;BMP280;67284;44.782;10.282;2023-07-20T21:49:14;100076.38;;;29.41
26158;BMP280;67284;44.782;10.282;2023-07-20T21:54:05;100081.28;;;29.36
26158;BMP280;67284;44.782;10.282;2023-07-20T21:58:57;100072.13;;;29.30
26158;BMP280;67284;44.782;10.282;2023-07-20T22:03:49;100073.25;;;29.28
26158;BMP280;67284;44.782;10.282;2023-07-20T22:08:42;100071.56;;;29.27
26158;BMP280;67284;44.782;10.282;2023-07-20T22:13:34;100073.50;;;29.25
26158;BMP280;67284;44.782;10.282;2023-07-20T22:18:26;100066.84;;;29.21
26158;BMP280;67284;44.782;10.282;2023-07-20T22:23:27;100074.09;;;29.19
26158;BMP280;67284;44.782;10.282;2023-07-20T22:28:19;100085.81;;;29.16
26158;BMP280;67284;44.782;10.282;2023-07-20T22:33:11;100093.91;;;29.15
26158;BMP280;67284;44.782;10.282;2023-07-20T22:38:03;100092.53;;;29.11
26158;BMP280;67284;44.782;10.282;2023-07-20T22:42:55;100097.13;;;29.09
26158;BMP280;67284;44.782;10.282;2023-07-20T22:47:47;100093.94;;;29.05
26158;BMP280;67284;44.782;10.282;2023-07-20T22:52:42;100100.34;;;29.03
26158;BMP280;67284;44.782;10.282;2023-07-20T22:57:34;100098.00;;;29.00
26158;BMP280;67284;44.782;10.282;2023-07-20T23:02:26;100092.03;;;28.98
26158;BMP280;67284;44.782;10.282;2023-07-20T23:07:18;100093.97;;;28.96
26158;BMP280;67284;44.782;10.282;2023-07-20T23:12:12;100104.84;;;28.93
26158;BMP280;67284;44.782;10.282;2023-07-20T23:17:04;100088.97;;;28.93
26158;BMP280;67284;44.782;10.282;2023-07-20T23:21:58;100098.03;;;28.90
26158;BMP280;67284;44.782;10.282;2023-07-20T23:26:49;100089.53;;;28.87
26158;BMP280;67284;44.782;10.282;2023-07-20T23:31:44;100075.75;;;28.84
26158;BMP280;67284;44.782;10.282;2023-07-20T23:36:36;100084.84;;;28.81
26158;BMP280;67284;44.782;10.282;2023-07-20T23:41:28;100090.13;;;28.81
26158;BMP280;67284;44.782;10.282;2023-07-20T23:46:20;100091.25;;;28.79
26158;BMP280;67284;44.782;10.282;2023-07-20T23:51:15;100087.06;;;28.76
26158;BMP280;67284;44.782;10.282;2023-07-20T23:56:14;100071.47;;;28.73
